Time;durP1;ratioP1;P1;durP2;ratioP2;P2;SDS_P1;SDS_P2;PMS_P1;PMS_P2;Temp;Humidity;BMP_temperature;BMP_pressure;BME280_temperature;BME280_humidity;BME280_pressure;Samples;Min_cycle;Max_cycle;Signal;HPM_P1;HPM_P2
2022/09/18 00:00:57;;;;;;;7.24;6.79;;;;;;;19.07;81.08;99648.66;444745;119;922567;-77
2022/09/18 00:02:00;;;;;;;6.92;6.47;;;;;;;19.07;81.03;99653.36;444686;119;923448;-77
2022/09/18 00:03:05;;;;;;;7.48;6.85;;;;;;;19.06;81.00;99652.53;444513;119;922937;-77
2022/09/18 00:04:12;;;;;;;6.95;6.46;;;;;;;19.07;81.02;99653.36;444678;119;930588;-77
2022/09/18 00:05:15;;;;;;;6.59;6.16;;;;;;;19.06;80.98;99646.18;444487;119;922880;-77
2022/09/18 00:06:21;;;;;;;7.31;6.83;;;;;;;19.06;80.97;99657.23;444734;119;922602;-77
2022/09/18 00:07:24;;;;;;;7.08;6.57;;;;;;;19.06;81.00;99655.30;444518;119;922632;-77
2022/09/18 00:08:27;;;;;;;7.18;6.43;;;;;;;19.06;80.95;99651.70;444734;119;922751;-77
2022/09/18 00:09:30;;;;;;;7.64;7.14;;;;;;;19.06;80.95;99643.42;444780;119;922560;-77
2022/09/18 00:10:39;;;;;;;6.64;6.21;;;;;;;19.05;80.97;99642.59;444693;119;923519;-78
2022/09/18 00:11:45;;;;;;;7.76;7.06;;;;;;;19.05;80.94;99634.30;444568;119;922519;-78
2022/09/18 00:12:48;;;;;;;8.97;7.12;;;;;;;19.04;80.94;99638.17;444578;119;922722;-77
2022/09/18 00:13:51;;;;;;;7.70;7.02;;;;;;;19.04;80.92;99634.59;444761;117;922608;-78
2022/09/18 00:14:55;;;;;;;6.59;6.13;;;;;;;19.03;80.97;99631.00;444742;119;923108;-78
2022/09/18 00:16:00;;;;;;;7.35;6.56;;;;;;;19.03;80.93;99639.29;444679;119;923001;-78
2022/09/18 00:17:33;;;;;;;7.54;6.92;;;;;;;19.03;80.87;99628.23;444670;117;922625;-77
2022/09/18 00:18:37;;;;;;;7.35;6.75;;;;;;;19.03;80.88;99630.17;444582;119;922489;-76
2022/09/18 00:19:40;;;;;;;7.31;6.62;;;;;;;19.03;80.91;99630.17;444680;119;922856;-76
2022/09/18 00:20:42;;;;;;;7.31;6.78;;;;;;;19.03;80.77;99630.17;444733;119;930580;-76
2022/09/18 00:21:48;;;;;;;8.92;6.71;;;;;;;19.03;80.88;99624.65;444792;119;923459;-76
2022/09/18 00:22:51;;;;;;;7.40;6.86;;;;;;;19.02;80.77;99632.11;444521;117;922544;-78
2022/09/18 00:23:57;;;;;;;6.86;6.27;;;;;;;19.02;80.78;99626.59;444757;119;922534;-78
2022/09/18 00:25:00;;;;;;;6.78;6.28;;;;;;;19.01;80.83;99618.61;444582;119;923256;-78
2022/09/18 00:26:04;;;;;;;7.19;6.77;;;;;;;19.01;80.83;99616.67;444807;119;923127;-78
2022/09/18 00:27:06;;;;;;;7.75;7.17;;;;;;;19.01;80.83;99618.61;444693;119;922544;-78
2022/09/18 00:28:09;;;;;;;7.39;6.71;;;;;;;19.01;80.75;99618.61;444738;117;923307;-77
2022/09/18 00:29:13;;;;;;;7.64;7.09;;;;;;;19.01;80.79;99610.33;444767;119;923089;-78
2022/09/18 00:30:16;;;;;;;6.99;6.49;;;;;;;18.99;80.77;99612.55;443315;119;923138;-78
2022/09/18 00:31:28;;;;;;;7.18;6.69;;;;;;;18.98;80.76;99608.95;443712;118;922572;-75
2022/09/18 00:32:31;;;;;;;;;;;;;;;18.98;80.87;99616.42;448254;117;922119;-78
2022/09/18 00:33:34;;;;;;;7.53;7.05;;;;;;;18.97;80.77;99617.53;444926;117;922608;-78
2022/09/18 00:34:40;;;;;;;7.53;6.78;;;;;;;18.95;80.80;99620.61;450596;117;922690;-78
2022/09/18 00:35:43;;;;;;;7.19;6.69;;;;;;;18.93;80.82;99614.55;450501;117;922907;-78
2022/09/18 00:36:47;;;;;;;7.43;6.91;;;;;;;18.92;80.80;99620.35;450525;117;922805;-79
2022/09/18 00:37:50;;;;;;;7.18;6.68;;;;;;;18.91;80.82;99627.02;450500;117;922582;-78
2022/09/18 00:38:53;;;;;;;7.01;6.55;;;;;;;18.90;80.76;99617.08;450611;117;922787;-78
2022/09/18 00:39:56;;;;;;;7.09;6.59;;;;;;;18.89;80.74;99618.19;450581;114;922525;-78
2022/09/18 00:41:02;;;;;;;7.86;7.26;;;;;;;18.89;80.74;99624.54;450608;116;922605;-76
2022/09/18 00:42:05;;;;;;;8.06;7.21;;;;;;;18.87;80.76;99615.71;450440;116;922777;-76
2022/09/18 00:43:17;;;;;;;6.83;6.34;;;;;;;18.87;80.77;99620.41;450580;117;922592;-76
2022/09/18 00:44:30;;;;;;;7.39;6.97;;;;;;;18.85;80.72;99614.38;450034;117;923041;-76
2022/09/18 00:45:33;;;;;;;8.03;7.48;;;;;;;18.85;80.80;99617.13;450419;117;923072;-77
2022/09/18 00:46:37;;;;;;;7.36;6.89;;;;;;;18.84;80.87;99612.72;450502;116;922920;-77
2022/09/18 00:47:43;;;;;;;8.36;7.79;;;;;;;18.83;80.87;99613.83;450610;116;922944;-76
2022/09/18 00:48:56;;;;;;;7.61;6.99;;;;;;;18.83;80.95;99611.07;449876;117;922534;-77
2022/09/18 00:50:02;;;;;;;8.11;6.91;;;;;;;18.83;81.00;99611.90;450435;117;922640;-76
2022/09/18 00:51:07;;;;;;;7.77;6.98;;;;;;;18.82;80.93;99603.89;455229;116;922492;-76
2022/09/18 00:52:12;;;;;;;7.67;6.97;;;;;;;18.83;80.95;99605.55;444786;116;922564;-76
2022/09/18 00:53:15;;;;;;;6.96;6.54;;;;;;;18.84;80.93;99598.91;440316;120;922948;-76
2022/09/18 00:54:37;;;;;;;7.86;7.25;;;;;;;18.84;80.97;99601.67;440547;120;922612;-77
2022/09/18 00:55:41;;;;;;;7.32;6.77;;;;;;;18.84;80.97;99605.27;440341;120;923062;-76
2022/09/18 00:56:46;;;;;;;7.68;7.12;;;;;;;18.85;81.02;99595.05;440429;120;922613;-76
2022/09/18 00:57:53;;;;;;;7.52;6.98;;;;;;;18.83;80.97;99592.56;440306;118;931222;-77
2022/09/18 00:58:57;;;;;;;7.37;6.82;;;;;;;18.83;80.99;99591.73;443868;118;922671;-77
2022/09/18 01:00:03;;;;;;;7.94;7.34;;;;;;;18.83;81.00;99587.04;447953;118;923559;-77
2022/09/18 01:01:07;;;;;;;7.66;7.06;;;;;;;18.84;80.99;99582.34;447802;118;930568;-76
2022/09/18 01:02:11;;;;;;;7.64;7.14;;;;;;;18.84;80.97;99588.69;447895;118;922583;-79
2022/09/18 01:03:16;;;;;;;7.26;6.66;;;;;;;18.85;80.95;99583.99;447643;118;923037;-78
2022/09/18 01:04:19;;;;;;;7.41;6.87;;;;;;;18.85;80.92;99589.52;448044;118;922451;-78
2022/09/18 01:05:42;;;;;;;7.33;6.84;;;;;;;18.86;80.90;99591.13;448064;117;922493;-79
2022/09/18 01:06:54;;;;;;;7.48;6.89;;;;;;;18.87;80.89;99582.56;447391;118;922690;-78
2022/09/18 01:08:09;;;;;;;7.79;7.20;;;;;;;18.86;80.93;99578.16;447876;118;922662;-78
2022/09/18 01:09:49;;;;;;;7.22;6.70;;;;;;;18.86;80.93;99575.39;447206;118;922964;-78
2022/09/18 01:11:21;;;;;;;7.80;7.27;;;;;;;18.86;80.94;99577.33;447870;118;923031;-79
2022/09/18 01:12:57;;;;;;;7.37;6.85;;;;;;;18.84;80.92;99577.64;447343;118;923026;-79
2022/09/18 01:14:12;;;;;;;7.66;7.16;;;;;;;18.83;80.94;99572.41;447879;118;922607;-78
2022/09/18 01:15:19;;;;;;;7.09;6.64;;;;;;;18.82;80.96;99573.52;447224;118;922851;-78
2022/09/18 01:16:25;;;;;;;7.45;7.01;;;;;;;18.81;80.98;99569.09;447884;118;922937;-79
2022/09/18 01:17:53;;;;;;;6.89;6.37;;;;;;;18.81;80.97;99569.09;445302;118;923352;-79
2022/09/18 01:19:09;;;;;;;8.01;7.41;;;;;;;18.80;81.00;99567.48;439693;120;922998;-78
2022/09/18 01:20:33;;;;;;;7.31;6.72;;;;;;;18.79;80.99;99563.06;441583;118;922622;-78
2022/09/18 01:21:40;;;;;;;7.91;7.20;;;;;;;18.79;81.04;99554.78;447985;118;922613;-78
2022/09/18 01:22:52;;;;;;;7.58;6.83;;;;;;;18.79;80.99;99565.83;447653;118;922793;-78
2022/09/18 01:24:23;;;;;;;7.76;7.22;;;;;;;18.77;81.00;99560.59;447018;118;922514;-78
2022/09/18 01:25:32;;;;;;;7.81;7.34;;;;;;;18.77;80.93;99563.35;430569;123;923214;-79
2022/09/18 01:26:48;;;;;;;7.82;7.30;;;;;;;18.78;80.95;99562.24;431211;118;930714;-78
2022/09/18 01:28:09;;;;;;;7.78;7.28;;;;;;;18.78;80.99;99566.94;447851;116;922781;-78
2022/09/18 01:29:22;;;;;;;8.03;7.53;;;;;;;18.77;80.99;99557.83;447858;118;922556;-78
2022/09/18 01:30:25;;;;;;;8.74;8.16;;;;;;;18.77;80.99;99554.24;447370;118;922982;-79
2022/09/18 01:31:38;;;;;;;9.37;8.13;;;;;;;18.77;80.97;99557.00;447829;118;922540;-79
2022/09/18 01:32:51;;;;;;;8.42;7.89;;;;;;;18.76;80.97;99550.66;411084;129;923718;-78
2022/09/18 01:34:24;;;;;;;7.85;7.38;;;;;;;18.88;81.00;99553.01;502775;105;947008;-77
2022/09/18 01:35:31;;;;;;;7.87;7.38;;;;;;;18.76;80.97;99553.41;491987;107;922460;-77
2022/09/18 01:36:40;;;;;;;8.73;8.12;;;;;;;18.76;80.96;99556.17;480170;107;922784;-77
2022/09/18 01:38:05;;;;;;;9.79;7.42;;;;;;;18.75;81.04;99552.59;483580;107;923097;-78
2022/09/18 01:39:34;;;;;;;8.31;7.71;;;;;;;18.76;80.94;99553.41;479016;109;922482;-78
2022/09/18 01:40:50;;;;;;;9.26;8.23;;;;;;;18.77;80.91;99545.95;475123;109;922576;-77
2022/09/18 01:41:55;;;;;;;8.67;8.00;;;;;;;18.75;80.93;99549.83;475155;109;922994;-77
2022/09/18 01:43:01;;;;;;;7.70;7.14;;;;;;;18.76;80.95;99550.66;474939;109;922510;-78
2022/09/18 01:44:16;;;;;;;9.02;8.17;;;;;;;18.74;80.95;99548.18;477125;110;930597;-78
2022/09/18 01:45:23;;;;;;;8.61;8.00;;;;;;;18.75;80.91;99547.06;481721;110;923068;-78
2022/09/18 01:46:29;;;;;;;8.98;8.34;;;;;;;18.75;80.89;99537.95;481675;110;923053;-77
2022/09/18 01:47:35;;;;;;;8.76;8.03;;;;;;;18.75;80.89;99541.55;478777;109;922971;-78
2022/09/18 01:48:45;;;;;;;8.17;7.57;;;;;;;18.77;80.90;99537.67;472152;111;923446;-78
2022/09/18 01:49:52;;;;;;;8.95;8.31;;;;;;;18.77;80.88;99538.50;474152;110;923172;-77
2022/09/18 01:51:10;;;;;;;8.71;7.93;;;;;;;18.78;80.86;99533.80;481722;110;922874;-77
2022/09/18 01:52:23;;;;;;;8.93;8.29;;;;;;;18.77;80.85;99535.73;481708;109;923014;-77
2022/09/18 01:53:35;;;;;;;9.59;8.82;;;;;;;18.79;80.88;99532.69;481636;110;923048;-78
2022/09/18 01:54:42;;;;;;;8.83;8.01;;;;;;;18.77;80.89;99524.69;478292;109;923129;-78
2022/09/18 01:55:55;;;;;;;10.86;8.38;;;;;;;18.78;80.77;99523.58;481723;110;922899;-78
2022/09/18 01:57:22;;;;;;;8.62;8.05;;;;;;;18.78;80.77;99517.23;478740;109;922510;-78
2022/09/18 01:58:27;;;;;;;9.11;8.41;;;;;;;18.77;80.77;99508.12;479569;109;922512;-77
2022/09/18 01:59:36;;;;;;;8.82;8.17;;;;;;;18.77;80.82;99519.16;459349;114;922992;-78
2022/09/18 02:00:44;;;;;;;8.84;8.06;;;;;;;18.77;80.78;99516.41;462361;114;922970;-77
2022/09/18 02:01:49;;;;;;;8.94;8.31;;;;;;;18.76;80.76;99506.47;456184;114;923158;-78
2022/09/18 02:03:11;;;;;;;8.87;8.24;;;;;;;18.77;80.83;99507.30;457640;114;923564;-78
2022/09/18 02:04:18;;;;;;;9.35;7.91;;;;;;;18.76;80.79;99500.95;460466;114;922692;-78
2022/09/18 02:05:27;;;;;;;8.31;7.68;;;;;;;18.75;80.76;99491.84;455203;116;922460;-76
2022/09/18 02:06:40;;;;;;;9.52;8.53;;;;;;;18.75;80.76;99511.16;453847;116;922984;-77
2022/09/18 02:07:56;;;;;;;9.00;8.28;;;;;;;18.75;80.77;99505.64;465166;111;923115;-78
2022/09/18 02:09:01;;;;;;;8.66;7.91;;;;;;;18.75;80.77;99505.64;463313;111;922824;-77
2022/09/18 02:10:07;;;;;;;8.49;7.88;;;;;;;18.76;80.73;99500.95;475118;111;923152;-77
2022/09/18 02:11:12;;;;;;;9.00;8.21;;;;;;;18.75;80.79;99502.88;470254;110;923361;-77
2022/09/18 02:12:19;;;;;;;8.59;7.84;;;;;;;18.75;80.76;99513.10;473699;110;922524;-77
2022/09/18 02:13:27;;;;;;;8.84;8.04;;;;;;;18.75;80.73;99499.30;470398;111;922589;-76
2022/09/18 02:14:36;;;;;;;8.57;7.96;;;;;;;18.74;80.68;99503.99;470769;112;922895;-77
2022/09/18 02:15:44;;;;;;;8.97;8.31;;;;;;;18.75;80.73;99504.82;471452;110;922924;-77
2022/09/18 02:16:59;;;;;;;9.47;8.58;;;;;;;18.74;80.71;99500.44;469732;112;923044;-77
2022/09/18 02:18:07;;;;;;;11.66;8.50;;;;;;;18.73;80.74;99507.89;470586;112;923075;-77
2022/09/18 02:19:24;;;;;;;9.06;8.30;;;;;;;18.73;80.79;99496.85;467272;112;922507;-77
2022/09/18 02:20:29;;;;;;;8.66;8.06;;;;;;;18.73;80.78;99494.09;469874;112;922538;-77
2022/09/18 02:21:35;;;;;;;8.60;7.92;;;;;;;18.71;80.77;99499.08;466714;112;922496;-77
2022/09/18 02:22:45;;;;;;;8.78;8.26;;;;;;;18.72;80.81;99489.67;456066;116;922957;-77
2022/09/18 02:23:50;;;;;;;9.84;8.71;;;;;;;18.71;80.77;99485.27;458183;113;923194;-77
2022/09/18 02:24:56;;;;;;;10.09;8.88;;;;;;;18.71;80.91;99478.92;467553;112;922552;-77
2022/09/18 02:26:06;;;;;;;9.44;8.84;;;;;;;18.71;80.80;99479.74;458959;115;930562;-78
2022/09/18 02:27:08;;;;;;;9.54;8.57;;;;;;;18.71;80.78;99474.22;469300;112;922482;-77
2022/09/18 02:28:13;;;;;;;8.81;8.10;;;;;;;18.70;80.84;99472.57;470875;112;922944;-77
2022/09/18 02:29:19;;;;;;;8.97;8.18;;;;;;;18.71;80.78;99479.74;467601;112;922512;-77
2022/09/18 02:30:23;;;;;;;9.53;8.84;;;;;;;18.72;80.82;99480.57;480355;110;923043;-77
2022/09/18 02:31:27;;;;;;;9.52;8.79;;;;;;;18.72;80.80;99469.52;481781;110;922890;-77
2022/09/18 02:32:30;;;;;;;8.76;8.26;;;;;;;18.72;80.80;99469.52;481727;110;922984;-78
2022/09/18 02:33:36;;;;;;;9.01;8.19;;;;;;;18.71;80.79;99470.64;481757;109;922490;-77
2022/09/18 02:34:41;;;;;;;9.46;8.77;;;;;;;18.72;80.79;99466.77;480848;109;923078;-77
2022/09/18 02:35:47;;;;;;;9.86;9.25;;;;;;;18.71;80.89;99468.70;477834;110;922584;-77
2022/09/18 02:36:59;;;;;;;9.37;8.57;;;;;;;18.72;80.78;99473.11;481665;109;923198;-78
2022/09/18 02:38:06;;;;;;;10.13;9.29;;;;;;;18.72;80.85;99473.11;481662;110;922875;-77
2022/09/18 02:39:29;;;;;;;9.54;8.79;;;;;;;18.72;80.80;99473.11;481022;109;922821;-78
2022/09/18 02:40:51;;;;;;;8.65;8.03;;;;;;;18.73;80.80;99473.94;481562;109;922699;-77
2022/09/18 02:42:07;;;;;;;9.41;8.73;;;;;;;18.72;80.81;99470.34;464867;111;922696;-77
2022/09/18 02:43:28;;;;;;;9.27;8.63;;;;;;;18.71;80.85;99474.22;466501;111;922648;-77
2022/09/18 02:44:35;;;;;;;9.82;9.12;;;;;;;18.71;80.90;99471.45;471958;110;922986;-77
2022/09/18 02:45:51;;;;;;;12.01;8.82;;;;;;;18.70;81.00;99469.81;469357;112;922490;-78
2022/09/18 02:47:03;;;;;;;9.65;8.87;;;;;;;18.70;80.95;99464.28;446901;116;922833;-77
2022/09/18 02:48:46;;;;;;;9.37;8.75;;;;;;;18.81;81.03;99461.39;482705;110;947333;-78
2022/09/18 02:50:15;;;;;;;8.81;8.16;;;;;;;18.69;81.10;99465.40;474099;112;922719;-79
2022/09/18 02:51:33;;;;;;;9.66;8.97;;;;;;;18.80;81.09;99459.77;476934;110;947093;-79
2022/09/18 02:52:48;;;;;;;10.41;9.54;;;;;;;18.68;81.20;99462.95;462881;114;923089;-78
2022/09/18 02:54:04;;;;;;;9.64;9.01;;;;;;;18.67;81.20;99470.41;457214;115;922709;-79
2022/09/18 02:55:11;;;;;;;9.77;9.05;;;;;;;18.67;81.13;99466.83;438585;120;922807;-78
2022/09/18 02:56:37;;;;;;;10.47;9.10;;;;;;;18.66;81.13;99460.48;457200;116;923058;-79
2022/09/18 02:57:49;;;;;;;9.42;8.71;;;;;;;18.67;81.18;99469.59;457265;114;922585;-78
2022/09/18 02:58:59;;;;;;;10.21;9.37;;;;;;;18.66;81.17;99466.00;453095;116;922925;-78
2022/09/18 03:00:05;;;;;;;9.37;8.62;;;;;;;18.66;81.29;99468.77;455359;116;922554;-78
2022/09/18 03:01:11;;;;;;;9.49;8.84;;;;;;;18.67;81.19;99467.66;455575;116;922533;-78
2022/09/18 03:02:15;;;;;;;9.93;9.25;;;;;;;18.67;81.25;99466.83;455500;116;922586;-78
2022/09/18 03:03:23;;;;;;;9.42;8.72;;;;;;;18.67;81.24;99459.37;455636;116;922921;-78
2022/09/18 03:04:28;;;;;;;9.71;8.77;;;;;;;18.68;81.25;99451.91;455039;116;923032;-78
2022/09/18 03:05:33;;;;;;;9.95;9.24;;;;;;;18.69;81.25;99462.64;455489;116;922896;-77
2022/09/18 03:06:37;;;;;;;9.97;9.29;;;;;;;18.70;81.23;99452.42;455615;116;922750;-77
2022/09/18 03:07:40;;;;;;;9.83;9.11;;;;;;;18.70;81.22;99442.20;455688;116;922558;-77
2022/09/18 03:08:43;;;;;;;10.17;9.47;;;;;;;18.71;81.18;99441.08;455715;116;923491;-77
2022/09/18 03:09:46;;;;;;;16.16;9.05;;;;;;;18.72;81.17;99439.97;455733;116;922493;-77
2022/09/18 03:10:51;;;;;;;9.54;8.94;;;;;;;18.72;81.18;99430.86;455558;116;922613;-77
2022/09/18 03:11:54;;;;;;;11.21;9.83;;;;;;;18.71;81.14;99432.80;455683;116;930568;-77
2022/09/18 03:12:57;;;;;;;9.99;9.32;;;;;;;18.72;81.19;99437.21;455601;114;923325;-77
2022/09/18 03:14:00;;;;;;;10.01;9.41;;;;;;;18.72;81.19;99434.45;438258;120;922667;-78
2022/09/18 03:15:04;;;;;;;10.00;9.41;;;;;;;18.72;81.21;99431.69;446731;116;923072;-77
2022/09/18 03:16:07;;;;;;;9.26;8.55;;;;;;;18.72;81.29;99428.93;457141;116;922587;-77
2022/09/18 03:17:10;;;;;;;10.14;9.37;;;;;;;18.74;81.19;99434.16;457391;115;922520;-77
2022/09/18 03:18:13;;;;;;;9.07;8.56;;;;;;;18.73;81.26;99421.47;457402;114;922581;-78
2022/09/18 03:19:16;;;;;;;10.03;9.31;;;;;;;18.73;81.30;99425.05;457441;116;922454;-76
2022/09/18 03:20:21;;;;;;;10.18;9.33;;;;;;;18.73;81.26;99419.53;457209;115;923086;-77
2022/09/18 03:21:26;;;;;;;10.07;9.34;;;;;;;18.74;81.25;99425.88;457320;115;922394;-77
2022/09/18 03:22:30;;;;;;;9.84;9.24;;;;;;;18.75;81.22;99425.56;457318;114;922771;-77
2022/09/18 03:23:33;;;;;;;9.66;9.12;;;;;;;18.75;81.24;99425.56;457476;116;922493;-77
2022/09/18 03:24:49;;;;;;;9.86;9.11;;;;;;;18.76;81.23;99426.38;457074;115;922631;-77
2022/09/18 03:25:53;;;;;;;9.70;9.01;;;;;;;18.77;81.20;99421.69;457404;115;922869;-77
2022/09/18 03:26:56;;;;;;;9.66;8.96;;;;;;;18.74;81.23;99415.63;457386;115;930495;-77
2022/09/18 03:28:01;;;;;;;12.27;9.81;;;;;;;18.76;81.22;99412.58;457272;114;923113;-77
2022/09/18 03:29:14;;;;;;;9.74;8.98;;;;;;;18.77;81.24;99413.40;457206;115;922835;-77
2022/09/18 03:30:18;;;;;;;9.78;9.11;;;;;;;18.74;81.25;99421.15;452276;117;922553;-78
2022/09/18 03:31:24;;;;;;;10.95;9.53;;;;;;;18.73;81.27;99414.01;451968;116;922746;-78
2022/09/18 03:32:27;;;;;;;10.48;9.79;;;;;;;18.74;81.35;99412.08;457351;114;923153;-77
2022/09/18 03:33:30;;;;;;;9.65;9.06;;;;;;;18.74;81.33;99409.31;457466;115;922688;-77
2022/09/18 03:34:33;;;;;;;10.18;9.41;;;;;;;18.73;81.29;99416.77;449649;118;922478;-78
2022/09/18 03:35:36;;;;;;;9.72;9.02;;;;;;;18.74;81.33;99412.86;449606;118;922852;-77
2022/09/18 03:36:39;;;;;;;9.93;9.23;;;;;;;18.75;81.31;99414.52;449587;117;922841;-77
2022/09/18 03:37:42;;;;;;;10.04;9.42;;;;;;;18.74;81.29;99426.67;449602;118;923309;-78
2022/09/18 03:38:47;;;;;;;10.94;9.99;;;;;;;18.75;81.32;99435.78;449405;117;923012;-77
2022/09/18 03:39:50;;;;;;;10.24;9.59;;;;;;;18.75;81.33;99447.66;449624;118;923520;-77
2022/09/18 03:40:53;;;;;;;10.14;9.44;;;;;;;18.75;81.29;99452.34;454678;116;923247;-78
2022/09/18 03:41:57;;;;;;;10.23;9.56;;;;;;;18.75;81.35;99444.06;457386;116;923032;-78
2022/09/18 03:43:00;;;;;;;10.03;9.29;;;;;;;18.75;81.34;99442.13;457322;114;923278;-78
2022/09/18 03:44:03;;;;;;;10.82;9.90;;;;;;;18.76;81.36;99442.95;457338;116;922991;-78
2022/09/18 03:45:06;;;;;;;10.04;9.35;;;;;;;18.76;81.37;99420.86;457337;115;922490;-78
2022/09/18 03:46:09;;;;;;;10.36;9.59;;;;;;;18.76;81.38;99407.05;457228;116;922854;-77
2022/09/18 03:47:13;;;;;;;10.98;10.11;;;;;;;18.76;81.36;99401.53;457359;116;922923;-77
2022/09/18 03:48:16;;;;;;;10.35;9.49;;;;;;;18.77;81.42;99405.11;457277;116;923058;-79
2022/09/18 03:49:19;;;;;;;10.13;9.18;;;;;;;18.77;81.43;99411.47;457335;116;922544;-78
2022/09/18 03:50:24;;;;;;;10.35;9.67;;;;;;;18.77;81.45;99416.98;457164;116;922622;-79
2022/09/18 03:51:28;;;;;;;10.54;9.74;;;;;;;18.78;81.46;99409.52;457226;115;923022;-78
2022/09/18 03:52:32;;;;;;;10.14;9.44;;;;;;;18.78;81.39;99406.77;457532;114;922622;-78
2022/09/18 03:53:37;;;;;;;9.56;8.86;;;;;;;18.79;81.38;99397.36;456536;116;923186;-78
2022/09/18 03:54:42;;;;;;;10.50;9.88;;;;;;;18.80;81.44;99404.54;454395;116;922559;-78
2022/09/18 03:56:04;;;;;;;10.44;9.76;;;;;;;18.80;81.50;99402.57;457283;116;922602;-78
2022/09/18 03:57:25;;;;;;;10.73;9.92;;;;;;;18.80;81.48;99394.28;457340;114;922523;-78
2022/09/18 03:58:29;;;;;;;10.98;10.08;;;;;;;18.81;81.50;99406.16;456311;115;923374;-77
2022/09/18 03:59:34;;;;;;;10.05;9.30;;;;;;;18.82;81.48;99391.23;448979;118;922758;-79
2022/09/18 04:00:56;;;;;;;10.80;10.10;;;;;;;18.83;81.50;99396.47;458149;115;922634;-78
2022/09/18 04:02:00;;;;;;;10.05;9.38;;;;;;;18.84;81.52;99389.01;460249;113;923293;-78
2022/09/18 04:03:05;;;;;;;9.61;8.93;;;;;;;18.84;81.53;99381.55;460064;115;922502;-78
2022/09/18 04:04:28;;;;;;;9.87;9.20;;;;;;;18.85;81.64;99387.89;460094;115;923078;-76
2022/09/18 04:05:50;;;;;;;9.75;9.13;;;;;;;18.85;81.55;99374.91;460084;115;923084;-77
2022/09/18 04:07:04;;;;;;;9.85;9.10;;;;;;;18.86;81.54;99375.70;460101;115;922853;-76
2022/09/18 04:08:18;;;;;;;9.10;8.53;;;;;;;18.85;81.58;99369.39;459854;113;923160;-77
2022/09/18 04:09:34;;;;;;;9.18;8.56;;;;;;;18.86;81.70;99365.48;459842;115;923265;-76
2022/09/18 04:10:38;;;;;;;10.11;9.48;;;;;;;18.87;81.67;99374.59;460125;115;922673;-77
2022/09/18 04:11:41;;;;;;;9.26;8.63;;;;;;;18.88;81.65;99376.23;460302;115;923143;-74
2022/09/18 04:12:44;;;;;;;8.54;7.94;;;;;;;18.88;81.65;99376.23;460259;115;922613;-77
2022/09/18 04:13:52;;;;;;;9.06;8.47;;;;;;;18.88;81.64;99370.71;460297;113;922613;-75
2022/09/18 04:14:55;;;;;;;9.56;8.67;;;;;;;18.87;81.65;99372.65;460259;115;922567;-77
2022/09/18 04:15:58;;;;;;;9.49;8.70;;;;;;;18.89;81.74;99369.59;459956;113;923342;-77
2022/09/18 04:17:03;;;;;;;9.57;8.87;;;;;;;18.89;81.72;99375.13;456239;115;923158;-74
2022/09/18 04:18:06;;;;;;;8.96;8.29;;;;;;;18.89;81.77;99366.84;449198;118;923217;-77
2022/09/18 04:19:10;;;;;;;8.98;8.38;;;;;;;18.89;81.77;99370.42;449048;118;923039;-78
2022/09/18 04:20:15;;;;;;;9.49;8.05;;;;;;;18.90;81.74;99360.20;448965;118;930933;-76
2022/09/18 04:21:18;;;;;;;9.32;8.78;;;;;;;18.90;81.70;99352.73;449193;118;923029;-78
2022/09/18 04:22:21;;;;;;;9.90;9.10;;;;;;;18.90;81.63;99354.67;449196;118;923050;-77
2022/09/18 04:23:25;;;;;;;9.03;8.32;;;;;;;18.90;81.64;99355.50;449146;118;922601;-76
2022/09/18 04:24:28;;;;;;;9.24;8.63;;;;;;;18.90;81.64;99349.15;449195;118;922727;-74
2022/09/18 04:25:30;;;;;;;8.59;8.03;;;;;;;18.90;81.70;99358.26;449193;118;923085;-77
2022/09/18 04:26:34;;;;;;;9.03;8.43;;;;;;;18.91;81.74;99356.32;449173;118;923143;-76
2022/09/18 04:27:37;;;;;;;9.01;8.28;;;;;;;18.93;81.84;99356.83;449133;118;923611;-76
2022/09/18 04:28:40;;;;;;;8.91;8.19;;;;;;;18.94;81.88;99355.70;449163;117;930524;-76
2022/09/18 04:29:43;;;;;;;9.28;8.61;;;;;;;18.96;81.90;99356.24;450727;116;922883;-77
2022/09/18 04:30:48;;;;;;;9.47;8.74;;;;;;;18.98;81.90;99354.80;456278;116;922535;-77
2022/09/18 04:33:07;;;;;;;8.78;8.18;;;;;;;19.13;82.04;99354.56;469776;110;947130;-76
2022/09/18 04:34:10;;;;;;;10.31;8.48;;;;;;;19.06;81.93;99345.03;462894;113;922451;-76
2022/09/18 04:35:13;;;;;;;8.53;7.83;;;;;;;19.09;81.97;99352.70;466644;113;922536;-75
2022/09/18 04:36:18;;;;;;;8.12;7.57;;;;;;;19.11;81.99;99347.70;457183;116;922586;-76
2022/09/18 04:37:22;;;;;;;9.34;8.50;;;;;;;19.13;82.05;99348.23;449448;116;922945;-76
2022/09/18 04:38:28;;;;;;;8.79;8.09;;;;;;;19.16;82.10;99350.39;457437;115;922487;-76
2022/09/18 04:39:32;;;;;;;8.69;8.09;;;;;;;19.19;82.13;99347.01;457287;116;922820;-76
2022/09/18 04:40:36;;;;;;;8.29;7.71;;;;;;;19.23;82.12;99341.72;457214;116;923098;-78
2022/09/18 04:41:40;;;;;;;8.50;7.90;;;;;;;19.24;82.13;99327.58;457440;116;922558;-76
2022/09/18 04:42:43;;;;;;;7.83;7.21;;;;;;;19.27;82.10;99321.45;457430;114;922678;-77
2022/09/18 04:43:46;;;;;;;8.67;7.79;;;;;;;19.30;82.10;99314.48;457405;116;922968;-77
2022/09/18 04:44:49;;;;;;;8.53;7.86;;;;;;;19.33;81.94;99286.27;457418;116;922543;-76
2022/09/18 04:45:53;;;;;;;8.46;7.21;;;;;;;19.33;81.94;99286.27;457440;116;922522;-76
2022/09/18 04:46:57;;;;;;;8.62;7.91;;;;;;;19.36;81.92;99274.58;457237;116;922626;-76
2022/09/18 04:48:01;;;;;;;7.70;7.19;;;;;;;19.37;81.86;99265.17;457329;114;922594;-76
2022/09/18 04:49:05;;;;;;;7.79;7.21;;;;;;;19.39;81.84;99262.94;457338;116;922773;-76
2022/09/18 04:50:09;;;;;;;8.09;7.47;;;;;;;19.40;81.74;99265.41;457335;115;922546;-77
2022/09/18 04:51:14;;;;;;;7.63;7.03;;;;;;;19.41;81.77;99278.08;455011;116;923049;-76
2022/09/18 04:52:24;;;;;;;8.63;7.91;;;;;;;19.42;81.63;99287.19;457206;116;923143;-77
2022/09/18 04:53:27;;;;;;;7.84;7.24;;;;;;;19.43;81.57;99302.66;457416;115;923357;-77
2022/09/18 04:54:31;;;;;;;8.29;7.58;;;;;;;19.42;81.57;99310.13;457357;115;922857;-74
2022/09/18 04:55:34;;;;;;;7.95;7.39;;;;;;;19.42;81.67;99307.36;457432;116;922647;-76
2022/09/18 04:56:38;;;;;;;7.81;7.24;;;;;;;19.42;81.57;99296.31;457490;115;922495;-76
2022/09/18 04:57:41;;;;;;;7.74;7.12;;;;;;;19.44;81.60;99298.78;457421;114;922666;-76
2022/09/18 04:58:44;;;;;;;7.19;6.53;;;;;;;19.44;81.62;99315.36;449330;117;922621;-74
2022/09/18 04:59:47;;;;;;;7.80;6.99;;;;;;;19.45;81.51;99322.57;437777;119;922700;-75
2022/09/18 05:00:50;;;;;;;7.67;7.10;;;;;;;19.45;81.51;99317.86;445301;116;923175;-78
2022/09/18 05:01:54;;;;;;;6.96;6.45;;;;;;;19.46;81.52;99305.66;455654;116;922854;-77
2022/09/18 05:02:58;;;;;;;7.89;7.29;;;;;;;19.49;81.50;99301.48;455512;116;928083;-76
2022/09/18 05:04:02;;;;;;;7.79;7.23;;;;;;;19.49;81.50;99301.48;446291;118;930675;-76
2022/09/18 05:05:16;;;;;;;7.58;7.06;;;;;;;19.51;81.50;99305.59;447382;116;923189;-76
2022/09/18 05:06:20;;;;;;;7.60;6.61;;;;;;;19.52;81.48;99322.97;455549;116;922526;-77
2022/09/18 05:07:24;;;;;;;7.89;7.07;;;;;;;19.53;81.34;99317.15;455612;116;922835;-76
2022/09/18 05:08:28;;;;;;;8.39;7.44;;;;;;;19.54;81.35;99324.33;455728;116;922953;-75
2022/09/18 05:09:31;;;;;;;7.74;7.14;;;;;;;19.55;81.30;99312.14;455682;116;922533;-77
2022/09/18 05:10:34;;;;;;;7.69;7.06;;;;;;;19.57;81.31;99303.55;455684;116;923064;-77
2022/09/18 05:11:37;;;;;;;7.66;7.04;;;;;;;19.58;81.22;99283.05;455711;116;923007;-77
2022/09/18 05:12:41;;;;;;;7.58;6.97;;;;;;;19.61;81.32;99287.16;455642;116;922990;-78
2022/09/18 05:13:49;;;;;;;6.83;6.34;;;;;;;19.61;81.18;99298.23;455708;116;922563;-77
2022/09/18 05:14:52;;;;;;;7.96;6.89;;;;;;;19.62;81.10;99300.69;455552;116;922532;-77
2022/09/18 05:15:56;;;;;;;7.23;6.63;;;;;;;19.63;81.01;99302.30;456892;116;922476;-77
2022/09/18 05:17:00;;;;;;;7.61;6.87;;;;;;;19.66;80.97;99317.48;457271;116;922826;-76